Hayase Maru — JD2583 — position and weather

sailwx.info

Track history (hours):
 
Tides and Currents Weather Stations Pressure Air Temp Water Temp Dewpoint Dewpoint Depression Visibility Wind Speed Wind Dir Waves Ship Positions

Hayase Maru

Last reported at 2014-Aug-31 03:07 UTC. Time now 2014-Sep-02 02:14 UTC.
Position N 35°56' E 140°42'.

Length 73 m; draft 4.1 m.

Type: Ship. MMSI: 431000395.

Date/timePositionNaut miles runAvg speedWind from/ knotsBaromVisibWave heightAir tempDewpointWater temp
2014-Aug-31 03:07N 35°56' E 140°42'2 2.5
2014-Aug-31 02:25N 35°55' E 140°40'0 0.0
2014-Aug-31 01:22N 35°55' E 140°40'0 0.0
2014-Aug-31 00:31N 35°55' E 140°40'0 0.0
2014-Aug-30 23:28N 35°55' E 140°40'0 0.0
2014-Aug-30 22:22N 35°55' E 140°40'0 0.0
2014-Aug-30 21:31N 35°55' E 140°40'0 0.0
2014-Aug-30 20:31N 35°55' E 140°40'0 0.0
2014-Aug-30 19:31N 35°55' E 140°40'0 0.0
2014-Aug-30 18:28N 35°55' E 140°40'0 0.0
2014-Aug-30 17:19N 35°55' E 140°40'0 0.0
2014-Aug-30 16:28N 35°55' E 140°40'0 0.0
2014-Aug-30 15:31N 35°55' E 140°40'0 0.0
2014-Aug-30 14:31N 35°55' E 140°40'0 0.0
2014-Aug-30 13:25N 35°55' E 140°40'0 0.0
2014-Aug-30 12:28N 35°55' E 140°40'0 0.0
2014-Aug-30 11:28N 35°55' E 140°40'0 0.0
2014-Aug-30 10:28N 35°55' E 140°40'0 0.0
2014-Aug-30 09:22N 35°55' E 140°40'0 0.0
2014-Aug-30 08:22N 35°55' E 140°40'0 0.0
2014-Aug-30 07:22N 35°55' E 140°40'0 0.0
2014-Aug-30 06:28N 35°55' E 140°40'0 0.0
2014-Aug-30 05:25N 35°55' E 140°40'0 0.0
2014-Aug-30 04:13N 35°55' E 140°40'0 0.0
2014-Aug-30 00:31N 35°55' E 140°40'0 0.0
2014-Aug-29 23:25N 35°55' E 140°40'0 0.0
2014-Aug-29 22:28N 35°55' E 140°40'1 0.5
2014-Aug-29 20:22N 35°56' E 140°40'0 0.0
2014-Aug-29 19:31N 35°56' E 140°40'0 0.0
2014-Aug-29 18:13N 35°56' E 140°40'1 0.5
2014-Aug-29 16:32N 35°55' E 140°41'24 0.7
2014-Aug-28 06:32N 35°31' E 140°45'1211.0
2014-Aug-28 05:28N 35°22' E 140°37'1210.7
2014-Aug-28 04:20N 35°12' E 140°28'11 9.6
2014-Aug-28 03:12N 35°04' E 140°19'710.6
2014-Aug-28 02:33N 35°01' E 140°12'1310.8
2014-Aug-28 01:20N 34°54' E 139°58'910.2
2014-Aug-28 00:27N 34°54' E 139°47'7 7.8
2014-Aug-27 23:34N 35°01' E 139°50'0 0.1
2014-Aug-27 22:22N 35°01' E 139°50'0 0.0
2014-Aug-27 21:16N 35°01' E 139°50'0 0.0
2014-Aug-27 20:28N 35°01' E 139°50'0 0.0
2014-Aug-27 19:28N 35°01' E 139°50'0 0.0
2014-Aug-27 18:22N 35°01' E 139°50'0 0.0
2014-Aug-27 17:28N 35°01' E 139°50'0 0.0
2014-Aug-27 16:22N 35°01' E 139°50'0 0.1
2014-Aug-27 15:28N 35°01' E 139°50'0 0.0
2014-Aug-27 14:28N 35°01' E 139°50'0 0.0
2014-Aug-27 13:28N 35°01' E 139°50'0 0.0
2014-Aug-27 12:28N 35°01' E 139°50'0 0.0
2014-Aug-27 11:22N 35°01' E 139°50'0 0.0
2014-Aug-27 10:22N 35°01' E 139°50'0 0.0
2014-Aug-27 09:10N 35°01' E 139°50'0 0.0
2014-Aug-27 08:22N 35°01' E 139°50'0 0.0
2014-Aug-27 07:16N 35°01' E 139°50'0 0.0
2014-Aug-27 06:28N 35°01' E 139°50'0 0.0
2014-Aug-27 05:22N 35°01' E 139°50'0 0.0
2014-Aug-27 04:22N 35°01' E 139°50'0 0.0
2014-Aug-27 03:10N 35°01' E 139°50'0 0.0
2014-Aug-27 02:10N 35°01' E 139°50'0 0.1
2014-Aug-27 01:22N 35°01' E 139°50'6 7.5
2014-Aug-27 00:33N 34°59' E 139°43'238 9.5
2014-Aug-25 23:22N 34°13' E 134°59'1111.3
2014-Aug-25 22:24N 34°23' E 135°00'911.0
2014-Aug-25 21:33N 34°33' E 135°02'141 3.8
2014-Aug-24 08:13N 33°50' E 132°19'2112.3
2014-Aug-24 06:33N 33°58' E 132°42'  
Track history (hours):
 
Tides and Currents Weather Stations Pressure Air Temp Water Temp Dewpoint Dewpoint Depression Visibility Wind Speed Wind Dir Waves Ship Positions

Hayase Maru

Last reported at 2014-Aug-31 03:07 UTC. Time now 2014-Sep-02 02:14 UTC.
Position N 35°56' E 140°42'.

Length 73 m; draft 4.1 m.

Type: Ship. MMSI: 431000395.

Date/timePositionNaut miles runAvg speedWind from/ knotsBaromVisibWave heightAir tempDewpointWater temp
2014-Aug-31 03:07N 35°56' E 140°42'2 2.5
2014-Aug-31 02:25N 35°55' E 140°40'0 0.0
2014-Aug-31 01:22N 35°55' E 140°40'0 0.0
2014-Aug-31 00:31N 35°55' E 140°40'0 0.0
2014-Aug-30 23:28N 35°55' E 140°40'0 0.0
2014-Aug-30 22:22N 35°55' E 140°40'0 0.0
2014-Aug-30 21:31N 35°55' E 140°40'0 0.0
2014-Aug-30 20:31N 35°55' E 140°40'0 0.0
2014-Aug-30 19:31N 35°55' E 140°40'0 0.0
2014-Aug-30 18:28N 35°55' E 140°40'0 0.0
2014-Aug-30 17:19N 35°55' E 140°40'0 0.0
2014-Aug-30 16:28N 35°55' E 140°40'0 0.0
2014-Aug-30 15:31N 35°55' E 140°40'0 0.0
2014-Aug-30 14:31N 35°55' E 140°40'0 0.0
2014-Aug-30 13:25N 35°55' E 140°40'0 0.0
2014-Aug-30 12:28N 35°55' E 140°40'0 0.0
2014-Aug-30 11:28N 35°55' E 140°40'0 0.0
2014-Aug-30 10:28N 35°55' E 140°40'0 0.0
2014-Aug-30 09:22N 35°55' E 140°40'0 0.0
2014-Aug-30 08:22N 35°55' E 140°40'0 0.0
2014-Aug-30 07:22N 35°55' E 140°40'0 0.0
2014-Aug-30 06:28N 35°55' E 140°40'0 0.0
2014-Aug-30 05:25N 35°55' E 140°40'0 0.0
2014-Aug-30 04:13N 35°55' E 140°40'0 0.0
2014-Aug-30 00:31N 35°55' E 140°40'0 0.0
2014-Aug-29 23:25N 35°55' E 140°40'0 0.0
2014-Aug-29 22:28N 35°55' E 140°40'1 0.5
2014-Aug-29 20:22N 35°56' E 140°40'0 0.0
2014-Aug-29 19:31N 35°56' E 140°40'0 0.0
2014-Aug-29 18:13N 35°56' E 140°40'1 0.5
2014-Aug-29 16:32N 35°55' E 140°41'24 0.7
2014-Aug-28 06:32N 35°31' E 140°45'1211.0
2014-Aug-28 05:28N 35°22' E 140°37'1210.7
2014-Aug-28 04:20N 35°12' E 140°28'11 9.6
2014-Aug-28 03:12N 35°04' E 140°19'710.6
2014-Aug-28 02:33N 35°01' E 140°12'1310.8
2014-Aug-28 01:20N 34°54' E 139°58'910.2
2014-Aug-28 00:27N 34°54' E 139°47'7 7.8
2014-Aug-27 23:34N 35°01' E 139°50'0 0.1
2014-Aug-27 22:22N 35°01' E 139°50'0 0.0
2014-Aug-27 21:16N 35°01' E 139°50'0 0.0
2014-Aug-27 20:28N 35°01' E 139°50'0 0.0
2014-Aug-27 19:28N 35°01' E 139°50'0 0.0
2014-Aug-27 18:22N 35°01' E 139°50'0 0.0
2014-Aug-27 17:28N 35°01' E 139°50'0 0.0
2014-Aug-27 16:22N 35°01' E 139°50'0 0.1
2014-Aug-27 15:28N 35°01' E 139°50'0 0.0
2014-Aug-27 14:28N 35°01' E 139°50'0 0.0
2014-Aug-27 13:28N 35°01' E 139°50'0 0.0
2014-Aug-27 12:28N 35°01' E 139°50'0 0.0
2014-Aug-27 11:22N 35°01' E 139°50'0 0.0
2014-Aug-27 10:22N 35°01' E 139°50'0 0.0
2014-Aug-27 09:10N 35°01' E 139°50'0 0.0
2014-Aug-27 08:22N 35°01' E 139°50'0 0.0
2014-Aug-27 07:16N 35°01' E 139°50'0 0.0
2014-Aug-27 06:28N 35°01' E 139°50'0 0.0
2014-Aug-27 05:22N 35°01' E 139°50'0 0.0
2014-Aug-27 04:22N 35°01' E 139°50'0 0.0
2014-Aug-27 03:10N 35°01' E 139°50'0 0.0
2014-Aug-27 02:10N 35°01' E 139°50'0 0.1
2014-Aug-27 01:22N 35°01' E 139°50'6 7.5
2014-Aug-27 00:33N 34°59' E 139°43'238 9.5
2014-Aug-25 23:22N 34°13' E 134°59'1111.3
2014-Aug-25 22:24N 34°23' E 135°00'911.0
2014-Aug-25 21:33N 34°33' E 135°02'141 3.8
2014-Aug-24 08:13N 33°50' E 132°19'2112.3
2014-Aug-24 06:33N 33°58' E 132°42'  

Dump ship's entire track history